Airfield :







YOU CAN JOIN US ON...

 
LOGIN :

Register | Disclaimer

   EN    FR    IT 

 









Legend :    VFR   Marginal VFR   IFR   Intensive IFR   Very Intensive IFR
Visi :
Ceiling :
>= 8 km
>= 3000ft
5 to 8 km
1000 to 3000 ft
1500m to 5 km
500 to 1000 ft
800 to 1500m
200 to 500 ft
< 800m
< 200 ft
Symbols :   Thunderstorms  Fog  Heavy snow  Heavy precipitations  Wind > 20 kt






- Airport Elevation : 565 ft
- IATA code : STI


MDST - Cibao Int.

CURRENT METAR :
  • 071500Z 16006KT 7000 -TSRA FEW014CB BKN016 BKN070 23/22 Q1018 CB/SE/SW/NW/N

EXPIRED METARs :
  • 071400Z 13004KT 8000 VCSH FEW016CB BKN018 27/23 Q1018 CB/SE/SW/N
  • 071300Z 00000KT 8000 VCSH FEW016CB BKN018 26/23 Q1017 RERA CB/SE

TAF TAF MDST
Valid from the 07 at 12:00 until the 08 at 12:00 UTC


071000Z 0712/0812 12010KT 9999 SCT018 BKN300
PROB30 0712/0718 5000 TSRA FEW014CB BKN015 BKN070
BECMG 0720/0722 06015KT
MDCS FIR / North America



MET'MAP, your aeronautical weather chart ! - Copyright ORBIFLY December 2007 - Disclaimer

ORBIFLY MET'MAP TEAM :

Programming & Development : Alexandra Zaïnal
Original concept : Baudouin d'Aumeries
Technical & hardware support : Manuel Goepfert
Assistance : Marc-Olivier Méhu




SOURCES & CREDITS :

   NOAA